sensor_id;sensor_type;location;lat;lon;timestamp;temperature;humidity
63202;DHT22;49296;48.188;11.566;2022-12-18T00:01:46;-2.50;75.89
63202;DHT22;49296;48.188;11.566;2022-12-18T00:04:15;-2.56;76.19
63202;DHT22;49296;48.188;11.566;2022-12-18T00:06:45;-2.61;76.22
63202;DHT22;49296;48.188;11.566;2022-12-18T00:09:11;-2.74;76.53
63202;DHT22;49296;48.188;11.566;2022-12-18T00:11:38;-2.76;76.77
63202;DHT22;49296;48.188;11.566;2022-12-18T00:14:04;-2.86;76.72
63202;DHT22;49296;48.188;11.566;2022-12-18T00:16:31;-2.92;76.87
63202;DHT22;49296;48.188;11.566;2022-12-18T00:19:00;-2.91;77.06
63202;DHT22;49296;48.188;11.566;2022-12-18T00:21:27;-2.88;76.89
63202;DHT22;49296;48.188;11.566;2022-12-18T00:23:55;-2.99;76.96
63202;DHT22;49296;48.188;11.566;2022-12-18T00:26:23;-3.07;77.34
63202;DHT22;49296;48.188;11.566;2022-12-18T00:28:49;-2.99;77.47
63202;DHT22;49296;48.188;11.566;2022-12-18T00:31:17;-3.02;77.36
63202;DHT22;49296;48.188;11.566;2022-12-18T00:33:44;-2.89;77.19
63202;DHT22;49296;48.188;11.566;2022-12-18T00:36:11;-2.96;77.25
63202;DHT22;49296;48.188;11.566;2022-12-18T00:38:38;-3.02;77.47
63202;DHT22;49296;48.188;11.566;2022-12-18T00:41:07;-3.03;77.66
63202;DHT22;49296;48.188;11.566;2022-12-18T00:43:33;-2.82;77.37
63202;DHT22;49296;48.188;11.566;2022-12-18T00:45:59;-2.97;77.43
63202;DHT22;49296;48.188;11.566;2022-12-18T00:48:25;-2.95;77.60
63202;DHT22;49296;48.188;11.566;2022-12-18T00:50:52;-2.97;77.60
63202;DHT22;49296;48.188;11.566;2022-12-18T00:53:19;-2.96;77.57
63202;DHT22;49296;48.188;11.566;2022-12-18T00:55:45;-2.84;77.57
63202;DHT22;49296;48.188;11.566;2022-12-18T00:58:14;-2.96;77.35
63202;DHT22;49296;48.188;11.566;2022-12-18T01:00:41;-3.02;77.67
63202;DHT22;49296;48.188;11.566;2022-12-18T01:03:07;-3.12;78.11
63202;DHT22;49296;48.188;11.566;2022-12-18T01:05:34;-3.07;77.80
63202;DHT22;49296;48.188;11.566;2022-12-18T01:08:00;-2.96;77.42
63202;DHT22;49296;48.188;11.566;2022-12-18T01:10:27;-2.93;77.39
63202;DHT22;49296;48.188;11.566;2022-12-18T01:12:53;-2.85;77.27
63202;DHT22;49296;48.188;11.566;2022-12-18T01:15:21;-2.79;77.18
63202;DHT22;49296;48.188;11.566;2022-12-18T01:17:48;-2.82;76.90
63202;DHT22;49296;48.188;11.566;2022-12-18T01:20:14;-2.88;77.19
63202;DHT22;49296;48.188;11.566;2022-12-18T01:22:41;-2.86;77.21
63202;DHT22;49296;48.188;11.566;2022-12-18T01:25:08;-3.06;77.80
63202;DHT22;49296;48.188;11.566;2022-12-18T01:27:34;-2.96;77.66
63202;DHT22;49296;48.188;11.566;2022-12-18T01:30:01;-3.04;77.79
63202;DHT22;49296;48.188;11.566;2022-12-18T01:32:30;-3.03;78.14
63202;DHT22;49296;48.188;11.566;2022-12-18T01:34:57;-3.03;78.11
63202;DHT22;49296;48.188;11.566;2022-12-18T01:37:23;-2.97;78.01
63202;DHT22;49296;48.188;11.566;2022-12-18T01:39:51;-2.88;77.90
63202;DHT22;49296;48.188;11.566;2022-12-18T01:42:19;-2.81;77.81
63202;DHT22;49296;48.188;11.566;2022-12-18T01:47:38;-2.89;77.89
63202;DHT22;49296;48.188;11.566;2022-12-18T01:50:07;-2.96;78.23
63202;DHT22;49296;48.188;11.566;2022-12-18T01:52:33;-2.96;78.38
63202;DHT22;49296;48.188;11.566;2022-12-18T01:55:01;-2.91;78.09
63202;DHT22;49296;48.188;11.566;2022-12-18T01:57:30;-2.93;78.34
63202;DHT22;49296;48.188;11.566;2022-12-18T01:59:59;-2.89;78.36
63202;DHT22;49296;48.188;11.566;2022-12-18T02:02:26;-2.95;78.35
63202;DHT22;49296;48.188;11.566;2022-12-18T02:04:55;-2.88;78.34
63202;DHT22;49296;48.188;11.566;2022-12-18T02:07:23;-2.84;78.08
63202;DHT22;49296;48.188;11.566;2022-12-18T02:09:54;-2.91;78.07
63202;DHT22;49296;48.188;11.566;2022-12-18T02:12:22;-2.86;78.09
63202;DHT22;49296;48.188;11.566;2022-12-18T02:14:52;-2.89;78.04
63202;DHT22;49296;48.188;11.566;2022-12-18T02:17:21;-2.99;78.12
63202;DHT22;49296;48.188;11.566;2022-12-18T02:19:57;-2.96;78.06
63202;DHT22;49296;48.188;11.566;2022-12-18T02:22:29;-3.04;77.92
63202;DHT22;49296;48.188;11.566;2022-12-18T02:25:04;-3.07;78.14
63202;DHT22;49296;48.188;11.566;2022-12-18T02:27:34;-3.10;78.19
63202;DHT22;49296;48.188;11.566;2022-12-18T02:30:01;-3.10;78.27
63202;DHT22;49296;48.188;11.566;2022-12-18T02:32:30;-3.09;78.47
63202;DHT22;49296;48.188;11.566;2022-12-18T02:34:57;-3.07;78.43
63202;DHT22;49296;48.188;11.566;2022-12-18T02:37:25;-3.09;78.32
63202;DHT22;49296;48.188;11.566;2022-12-18T02:39:53;-3.06;78.43
63202;DHT22;49296;48.188;11.566;2022-12-18T02:42:21;-3.06;78.39
63202;DHT22;49296;48.188;11.566;2022-12-18T02:44:50;-3.04;78.36
63202;DHT22;49296;48.188;11.566;2022-12-18T02:47:20;-3.03;78.38
63202;DHT22;49296;48.188;11.566;2022-12-18T02:49:49;-3.07;78.28
63202;DHT22;49296;48.188;11.566;2022-12-18T02:52:21;-3.07;78.32
63202;DHT22;49296;48.188;11.566;2022-12-18T02:54:56;-3.09;78.46
63202;DHT22;49296;48.188;11.566;2022-12-18T02:57:25;-3.14;78.65
63202;DHT22;49296;48.188;11.566;2022-12-18T02:59:56;-3.10;78.41
63202;DHT22;49296;48.188;11.566;2022-12-18T03:02:25;-3.12;78.50
63202;DHT22;49296;48.188;11.566;2022-12-18T03:04:54;-3.13;78.56
63202;DHT22;49296;48.188;11.566;2022-12-18T03:07:34;-3.12;78.63
63202;DHT22;49296;48.188;11.566;2022-12-18T03:10:01;-3.09;78.43
63202;DHT22;49296;48.188;11.566;2022-12-18T03:12:29;-3.04;78.39
63202;DHT22;49296;48.188;11.566;2022-12-18T03:14:59;-3.06;78.33
63202;DHT22;49296;48.188;11.566;2022-12-18T03:17:28;-3.00;78.38
63202;DHT22;49296;48.188;11.566;2022-12-18T03:19:56;-3.02;78.21
63202;DHT22;49296;48.188;11.566;2022-12-18T03:22:24;-3.04;78.22
63202;DHT22;49296;48.188;11.566;2022-12-18T03:24:53;-3.04;78.23
63202;DHT22;49296;48.188;11.566;2022-12-18T03:27:20;-3.04;78.29
63202;DHT22;49296;48.188;11.566;2022-12-18T03:29:48;-2.99;78.07
63202;DHT22;49296;48.188;11.566;2022-12-18T03:32:19;-2.95;78.00
63202;DHT22;49296;48.188;11.566;2022-12-18T03:34:48;-2.95;78.02
63202;DHT22;49296;48.188;11.566;2022-12-18T03:37:16;-3.02;78.32
63202;DHT22;49296;48.188;11.566;2022-12-18T03:39:43;-2.93;77.96
63202;DHT22;49296;48.188;11.566;2022-12-18T03:42:10;-2.95;77.86
63202;DHT22;49296;48.188;11.566;2022-12-18T03:44:40;-3.02;78.16
63202;DHT22;49296;48.188;11.566;2022-12-18T03:47:09;-3.06;78.24
63202;DHT22;49296;48.188;11.566;2022-12-18T03:49:43;-3.12;78.54
63202;DHT22;49296;48.188;11.566;2022-12-18T03:52:14;-3.07;78.57
63202;DHT22;49296;48.188;11.566;2022-12-18T03:54:44;-3.03;78.63
63202;DHT22;49296;48.188;11.566;2022-12-18T03:57:13;-3.04;78.57
63202;DHT22;49296;48.188;11.566;2022-12-18T03:59:40;-3.04;78.56
63202;DHT22;49296;48.188;11.566;2022-12-18T04:02:09;-3.03;78.48
63202;DHT22;49296;48.188;11.566;2022-12-18T04:04:36;-2.99;78.45
63202;DHT22;49296;48.188;11.566;2022-12-18T04:07:05;-3.00;78.46
63202;DHT22;49296;48.188;11.566;2022-12-18T04:09:32;-2.95;78.50
63202;DHT22;49296;48.188;11.566;2022-12-18T04:12:00;-2.97;78.37
63202;DHT22;49296;48.188;11.566;2022-12-18T04:14:26;-2.95;78.40
63202;DHT22;49296;48.188;11.566;2022-12-18T04:16:53;-2.97;78.55
63202;DHT22;49296;48.188;11.566;2022-12-18T04:19:19;-2.97;78.47
63202;DHT22;49296;48.188;11.566;2022-12-18T04:21:46;-2.93;78.49
63202;DHT22;49296;48.188;11.566;2022-12-18T04:24:14;-2.99;78.57
63202;DHT22;49296;48.188;11.566;2022-12-18T04:26:41;-2.99;78.62
63202;DHT22;49296;48.188;11.566;2022-12-18T04:29:07;-2.99;78.65
63202;DHT22;49296;48.188;11.566;2022-12-18T04:31:34;-2.93;78.46
63202;DHT22;49296;48.188;11.566;2022-12-18T04:34:00;-2.84;78.29
63202;DHT22;49296;48.188;11.566;2022-12-18T04:36:27;-2.95;78.36
63202;DHT22;49296;48.188;11.566;2022-12-18T04:38:54;-2.86;78.35
63202;DHT22;49296;48.188;11.566;2022-12-18T04:41:22;-2.93;78.51
63202;DHT22;49296;48.188;11.566;2022-12-18T04:43:48;-2.92;78.41
63202;DHT22;49296;48.188;11.566;2022-12-18T04:46:15;-2.91;78.34
63202;DHT22;49296;48.188;11.566;2022-12-18T04:48:41;-2.95;78.23
63202;DHT22;49296;48.188;11.566;2022-12-18T04:51:08;-2.97;78.09
63202;DHT22;49296;48.188;11.566;2022-12-18T04:53:35;-2.88;78.05
63202;DHT22;49296;48.188;11.566;2022-12-18T04:56:02;-2.97;78.14
63202;DHT22;49296;48.188;11.566;2022-12-18T04:58:32;-2.97;78.28
63202;DHT22;49296;48.188;11.566;2022-12-18T05:00:58;-2.97;78.24
63202;DHT22;49296;48.188;11.566;2022-12-18T05:03:25;-3.02;78.58
63202;DHT22;49296;48.188;11.566;2022-12-18T05:05:52;-3.03;78.61
63202;DHT22;49296;48.188;11.566;2022-12-18T05:08:18;-3.06;78.82
63202;DHT22;49296;48.188;11.566;2022-12-18T05:10:45;-3.06;78.67
63202;DHT22;49296;48.188;11.566;2022-12-18T05:13:12;-3.04;78.61
63202;DHT22;49296;48.188;11.566;2022-12-18T05:15:40;-3.03;78.66
63202;DHT22;49296;48.188;11.566;2022-12-18T05:18:07;-2.97;78.59
63202;DHT22;49296;48.188;11.566;2022-12-18T05:20:34;-3.03;78.57
63202;DHT22;49296;48.188;11.566;2022-12-18T05:23:00;-3.03;78.45
63202;DHT22;49296;48.188;11.566;2022-12-18T05:25:27;-3.03;78.46
63202;DHT22;49296;48.188;11.566;2022-12-18T05:27:54;-3.04;78.53
63202;DHT22;49296;48.188;11.566;2022-12-18T05:30:20;-2.95;78.35
63202;DHT22;49296;48.188;11.566;2022-12-18T05:32:48;-2.91;78.21
63202;DHT22;49296;48.188;11.566;2022-12-18T05:35:15;-2.89;78.25
63202;DHT22;49296;48.188;11.566;2022-12-18T05:37:42;-2.86;78.16
63202;DHT22;49296;48.188;11.566;2022-12-18T05:40:09;-2.97;78.14
63202;DHT22;49296;48.188;11.566;2022-12-18T05:42:35;-2.86;78.41
63202;DHT22;49296;48.188;11.566;2022-12-18T05:45:02;-2.86;78.01
63202;DHT22;49296;48.188;11.566;2022-12-18T05:47:29;-2.85;78.12
63202;DHT22;49296;48.188;11.566;2022-12-18T05:49:57;-2.84;77.92
63202;DHT22;49296;48.188;11.566;2022-12-18T05:52:23;-2.79;77.90
63202;DHT22;49296;48.188;11.566;2022-12-18T05:54:50;-2.74;77.58
63202;DHT22;49296;48.188;11.566;2022-12-18T05:57:17;-2.71;77.31
63202;DHT22;49296;48.188;11.566;2022-12-18T05:59:43;-2.76;77.39
63202;DHT22;49296;48.188;11.566;2022-12-18T06:02:10;-2.86;77.43
63202;DHT22;49296;48.188;11.566;2022-12-18T06:04:36;-2.74;77.52
63202;DHT22;49296;48.188;11.566;2022-12-18T06:07:04;-2.79;77.50
63202;DHT22;49296;48.188;11.566;2022-12-18T06:09:31;-2.85;77.57
63202;DHT22;49296;48.188;11.566;2022-12-18T06:11:58;-2.86;77.82
63202;DHT22;49296;48.188;11.566;2022-12-18T06:14:24;-2.89;77.77
63202;DHT22;49296;48.188;11.566;2022-12-18T06:16:51;-2.91;77.56
63202;DHT22;49296;48.188;11.566;2022-12-18T06:19:17;-2.96;77.56
63202;DHT22;49296;48.188;11.566;2022-12-18T06:21:44;-3.03;77.61
63202;DHT22;49296;48.188;11.566;2022-12-18T06:24:12;-2.99;77.59
63202;DHT22;49296;48.188;11.566;2022-12-18T06:26:39;-3.04;77.67
63202;DHT22;49296;48.188;11.566;2022-12-18T06:29:05;-3.04;77.66
63202;DHT22;49296;48.188;11.566;2022-12-18T06:31:32;-3.02;77.80
63202;DHT22;49296;48.188;11.566;2022-12-18T06:33:58;-3.04;77.54
63202;DHT22;49296;48.188;11.566;2022-12-18T06:36:28;-3.16;77.76
63202;DHT22;49296;48.188;11.566;2022-12-18T06:38:58;-3.16;77.62
63202;DHT22;49296;48.188;11.566;2022-12-18T06:41:26;-3.13;77.72
63202;DHT22;49296;48.188;11.566;2022-12-18T06:43:52;-3.14;77.79
63202;DHT22;49296;48.188;11.566;2022-12-18T06:46:19;-3.04;77.87
63202;DHT22;49296;48.188;11.566;2022-12-18T06:48:49;-3.10;77.56
63202;DHT22;49296;48.188;11.566;2022-12-18T06:51:17;-3.13;77.52
63202;DHT22;49296;48.188;11.566;2022-12-18T06:53:43;-3.23;77.65
63202;DHT22;49296;48.188;11.566;2022-12-18T06:56:10;-3.17;77.70
63202;DHT22;49296;48.188;11.566;2022-12-18T06:58:38;-3.13;77.28
63202;DHT22;49296;48.188;11.566;2022-12-18T07:01:05;-3.09;77.20
63202;DHT22;49296;48.188;11.566;2022-12-18T07:03:32;-3.06;77.37
63202;DHT22;49296;48.188;11.566;2022-12-18T07:05:59;-3.12;77.34
63202;DHT22;49296;48.188;11.566;2022-12-18T07:08:26;-3.07;77.39
63202;DHT22;49296;48.188;11.566;2022-12-18T07:10:53;-3.02;77.45
63202;DHT22;49296;48.188;11.566;2022-12-18T07:13:19;-3.00;77.40
63202;DHT22;49296;48.188;11.566;2022-12-18T07:15:47;-2.91;77.13
63202;DHT22;49296;48.188;11.566;2022-12-18T07:18:14;-2.84;77.06
63202;DHT22;49296;48.188;11.566;2022-12-18T07:20:40;-2.79;77.06
63202;DHT22;49296;48.188;11.566;2022-12-18T07:23:07;-2.85;77.11
63202;DHT22;49296;48.188;11.566;2022-12-18T07:25:33;-2.91;77.08
63202;DHT22;49296;48.188;11.566;2022-12-18T07:28:00;-2.91;77.10
63202;DHT22;49296;48.188;11.566;2022-12-18T07:30:27;-3.04;77.05
63202;DHT22;49296;48.188;11.566;2022-12-18T07:32:55;-3.07;77.04
63202;DHT22;49296;48.188;11.566;2022-12-18T07:35:21;-3.12;76.95
63202;DHT22;49296;48.188;11.566;2022-12-18T07:37:48;-3.16;77.28
63202;DHT22;49296;48.188;11.566;2022-12-18T07:40:14;-3.17;77.16
63202;DHT22;49296;48.188;11.566;2022-12-18T07:42:41;-3.16;77.05
63202;DHT22;49296;48.188;11.566;2022-12-18T07:45:08;-3.13;77.28
63202;DHT22;49296;48.188;11.566;2022-12-18T07:47:34;-3.12;77.19
63202;DHT22;49296;48.188;11.566;2022-12-18T07:50:03;-3.00;77.36
63202;DHT22;49296;48.188;11.566;2022-12-18T07:52:30;-2.97;77.22
63202;DHT22;49296;48.188;11.566;2022-12-18T07:54:57;-2.95;77.37
63202;DHT22;49296;48.188;11.566;2022-12-18T07:57:23;-2.92;77.55
63202;DHT22;49296;48.188;11.566;2022-12-18T07:59:50;-2.86;77.30
63202;DHT22;49296;48.188;11.566;2022-12-18T08:02:16;-2.93;77.04
63202;DHT22;49296;48.188;11.566;2022-12-18T08:04:43;-2.97;76.88
63202;DHT22;49296;48.188;11.566;2022-12-18T08:07:11;-3.00;76.90
63202;DHT22;49296;48.188;11.566;2022-12-18T08:09:37;-2.96;76.81
63202;DHT22;49296;48.188;11.566;2022-12-18T08:12:04;-3.03;76.90
63202;DHT22;49296;48.188;11.566;2022-12-18T08:14:31;-3.06;76.82
63202;DHT22;49296;48.188;11.566;2022-12-18T08:16:57;-3.02;76.87
63202;DHT22;49296;48.188;11.566;2022-12-18T08:19:24;-2.95;76.89
63202;DHT22;49296;48.188;11.566;2022-12-18T08:21:51;-2.99;76.82
63202;DHT22;49296;48.188;11.566;2022-12-18T08:24:18;-2.97;76.95
63202;DHT22;49296;48.188;11.566;2022-12-18T08:26:45;-2.95;77.04
63202;DHT22;49296;48.188;11.566;2022-12-18T08:29:12;-2.95;76.93
63202;DHT22;49296;48.188;11.566;2022-12-18T08:31:38;-3.00;77.16
63202;DHT22;49296;48.188;11.566;2022-12-18T08:34:05;-2.89;77.13
63202;DHT22;49296;48.188;11.566;2022-12-18T08:36:32;-2.93;76.72
63202;DHT22;49296;48.188;11.566;2022-12-18T08:38:58;-2.96;76.63
63202;DHT22;49296;48.188;11.566;2022-12-18T08:41:26;-2.96;76.58
63202;DHT22;49296;48.188;11.566;2022-12-18T08:43:53;-2.85;76.61
63202;DHT22;49296;48.188;11.566;2022-12-18T08:46:37;-2.79;76.84
63202;DHT22;49296;48.188;11.566;2022-12-18T08:49:05;-2.61;76.33
63202;DHT22;49296;48.188;11.566;2022-12-18T08:51:32;-2.60;76.10
63202;DHT22;49296;48.188;11.566;2022-12-18T08:53:58;-2.75;76.30
63202;DHT22;49296;48.188;11.566;2022-12-18T08:56:25;-2.72;77.93
63202;DHT22;49296;48.188;11.566;2022-12-18T08:58:53;-2.72;78.72
63202;DHT22;49296;48.188;11.566;2022-12-18T09:01:20;-2.65;77.79
63202;DHT22;49296;48.188;11.566;2022-12-18T09:03:47;-2.60;76.29
63202;DHT22;49296;48.188;11.566;2022-12-18T09:06:14;-2.62;76.06
63202;DHT22;49296;48.188;11.566;2022-12-18T09:08:42;-2.58;76.40
63202;DHT22;49296;48.188;11.566;2022-12-18T09:11:11;-2.62;76.32
63202;DHT22;49296;48.188;11.566;2022-12-18T09:13:38;-2.61;76.00
63202;DHT22;49296;48.188;11.566;2022-12-18T09:16:06;-2.60;75.81
63202;DHT22;49296;48.188;11.566;2022-12-18T09:18:33;-2.57;75.79
63202;DHT22;49296;48.188;11.566;2022-12-18T09:21:00;-2.58;75.68
63202;DHT22;49296;48.188;11.566;2022-12-18T09:23:26;-2.54;75.71
63202;DHT22;49296;48.188;11.566;2022-12-18T09:25:58;-2.60;75.50
63202;DHT22;49296;48.188;11.566;2022-12-18T09:28:24;-2.58;75.54
63202;DHT22;49296;48.188;11.566;2022-12-18T09:30:51;-2.57;75.52
63202;DHT22;49296;48.188;11.566;2022-12-18T09:33:19;-2.57;75.84
63202;DHT22;49296;48.188;11.566;2022-12-18T09:35:45;-2.56;75.57
63202;DHT22;49296;48.188;11.566;2022-12-18T09:38:13;-2.53;75.87
63202;DHT22;49296;48.188;11.566;2022-12-18T09:40:42;-2.54;75.32
63202;DHT22;49296;48.188;11.566;2022-12-18T09:43:12;-2.47;75.21
63202;DHT22;49296;48.188;11.566;2022-12-18T09:45:41;-2.44;75.07
63202;DHT22;49296;48.188;11.566;2022-12-18T09:48:09;-2.51;75.27
63202;DHT22;49296;48.188;11.566;2022-12-18T09:50:38;-2.49;75.16
63202;DHT22;49296;48.188;11.566;2022-12-18T09:53:06;-2.41;74.95
63202;DHT22;49296;48.188;11.566;2022-12-18T09:55:35;-2.50;75.26
63202;DHT22;49296;48.188;11.566;2022-12-18T09:58:05;-2.57;75.05
63202;DHT22;49296;48.188;11.566;2022-12-18T10:00:33;-2.62;74.95
63202;DHT22;49296;48.188;11.566;2022-12-18T10:02:59;-2.61;75.11
63202;DHT22;49296;48.188;11.566;2022-12-18T10:05:29;-2.67;75.05
63202;DHT22;49296;48.188;11.566;2022-12-18T10:08:02;-2.68;75.38
63202;DHT22;49296;48.188;11.566;2022-12-18T10:10:32;-2.68;75.32
63202;DHT22;49296;48.188;11.566;2022-12-18T10:13:02;-2.68;75.02
63202;DHT22;49296;48.188;11.566;2022-12-18T10:15:31;-2.61;74.85
63202;DHT22;49296;48.188;11.566;2022-12-18T10:18:01;-2.56;74.70
63202;DHT22;49296;48.188;11.566;2022-12-18T10:20:30;-2.57;74.87
63202;DHT22;49296;48.188;11.566;2022-12-18T10:23:00;-2.50;74.73
63202;DHT22;49296;48.188;11.566;2022-12-18T10:25:31;-2.54;75.08
63202;DHT22;49296;48.188;11.566;2022-12-18T10:28:00;-2.47;74.75
63202;DHT22;49296;48.188;11.566;2022-12-18T10:30:33;-2.54;74.52
63202;DHT22;49296;48.188;11.566;2022-12-18T10:33:00;-2.53;74.45
63202;DHT22;49296;48.188;11.566;2022-12-18T10:35:27;-2.58;74.49
63202;DHT22;49296;48.188;11.566;2022-12-18T10:38:04;-2.57;74.51
63202;DHT22;49296;48.188;11.566;2022-12-18T10:40:32;-2.65;74.49
63202;DHT22;49296;48.188;11.566;2022-12-18T10:43:04;-2.65;74.58
63202;DHT22;49296;48.188;11.566;2022-12-18T10:45:31;-2.75;74.71
63202;DHT22;49296;48.188;11.566;2022-12-18T10:47:57;-2.72;74.95
63202;DHT22;49296;48.188;11.566;2022-12-18T10:50:25;-2.74;75.23
63202;DHT22;49296;48.188;11.566;2022-12-18T10:52:54;-2.74;75.04
63202;DHT22;49296;48.188;11.566;2022-12-18T10:55:21;-2.74;75.47
63202;DHT22;49296;48.188;11.566;2022-12-18T10:57:49;-2.64;75.27
63202;DHT22;49296;48.188;11.566;2022-12-18T11:00:25;-2.47;75.14
63202;DHT22;49296;48.188;11.566;2022-12-18T11:02:53;-2.40;74.58
63202;DHT22;49296;48.188;11.566;2022-12-18T11:05:24;-2.26;74.43
63202;DHT22;49296;48.188;11.566;2022-12-18T11:07:51;-2.21;74.32
63202;DHT22;49296;48.188;11.566;2022-12-18T11:10:25;-2.13;74.19
63202;DHT22;49296;48.188;11.566;2022-12-18T11:12:53;-2.10;74.22
63202;DHT22;49296;48.188;11.566;2022-12-18T11:15:20;-2.18;74.15
63202;DHT22;49296;48.188;11.566;2022-12-18T11:17:48;-2.29;74.37
63202;DHT22;49296;48.188;11.566;2022-12-18T11:20:27;-2.18;74.49
63202;DHT22;49296;48.188;11.566;2022-12-18T11:22:54;-2.10;74.11
63202;DHT22;49296;48.188;11.566;2022-12-18T11:25:22;-2.03;73.66
63202;DHT22;49296;48.188;11.566;2022-12-18T11:27:49;-2.12;74.01
63202;DHT22;49296;48.188;11.566;2022-12-18T11:30:22;-1.92;73.81
63202;DHT22;49296;48.188;11.566;2022-12-18T11:32:49;-2.05;73.52
63202;DHT22;49296;48.188;11.566;2022-12-18T11:35:18;-2.03;73.96
63202;DHT22;49296;48.188;11.566;2022-12-18T11:37:47;-1.95;73.77
63202;DHT22;49296;48.188;11.566;2022-12-18T11:40:15;-1.95;73.39
63202;DHT22;49296;48.188;11.566;2022-12-18T11:42:45;-1.99;73.34
63202;DHT22;49296;48.188;11.566;2022-12-18T11:48:00;-2.19;73.63
63202;DHT22;49296;48.188;11.566;2022-12-18T11:50:29;-2.29;73.76
63202;DHT22;49296;48.188;11.566;2022-12-18T11:52:57;-2.25;73.86
63202;DHT22;49296;48.188;11.566;2022-12-18T11:55:28;-2.23;73.88
63202;DHT22;49296;48.188;11.566;2022-12-18T11:57:57;-2.30;73.81
63202;DHT22;49296;48.188;11.566;2022-12-18T12:00:27;-2.29;74.27
63202;DHT22;49296;48.188;11.566;2022-12-18T12:03:06;-2.19;74.08
63202;DHT22;49296;48.188;11.566;2022-12-18T12:05:40;-2.19;74.17
63202;DHT22;49296;48.188;11.566;2022-12-18T12:08:11;-2.18;73.59
63202;DHT22;49296;48.188;11.566;2022-12-18T12:10:44;-2.32;73.92
63202;DHT22;49296;48.188;11.566;2022-12-18T12:13:19;-2.40;74.11
63202;DHT22;49296;48.188;11.566;2022-12-18T12:15:53;-2.41;74.16
63202;DHT22;49296;48.188;11.566;2022-12-18T12:18:25;-2.36;73.98
63202;DHT22;49296;48.188;11.566;2022-12-18T12:20:56;-2.50;74.28
63202;DHT22;49296;48.188;11.566;2022-12-18T12:23:27;-2.51;74.67
63202;DHT22;49296;48.188;11.566;2022-12-18T12:25:58;-2.57;74.45
63202;DHT22;49296;48.188;11.566;2022-12-18T12:28:31;-2.51;74.67
63202;DHT22;49296;48.188;11.566;2022-12-18T12:31:01;-2.56;75.02
63202;DHT22;49296;48.188;11.566;2022-12-18T12:33:36;-2.51;74.78
63202;DHT22;49296;48.188;11.566;2022-12-18T12:36:06;-2.47;74.67
63202;DHT22;49296;48.188;11.566;2022-12-18T12:38:37;-2.47;74.65
63202;DHT22;49296;48.188;11.566;2022-12-18T12:41:09;-2.51;74.53
63202;DHT22;49296;48.188;11.566;2022-12-18T12:43:57;-2.54;74.56
63202;DHT22;49296;48.188;11.566;2022-12-18T12:46:24;-2.50;74.58
63202;DHT22;49296;48.188;11.566;2022-12-18T12:48:53;-2.53;74.65
63202;DHT22;49296;48.188;11.566;2022-12-18T12:51:21;-2.51;74.87
63202;DHT22;49296;48.188;11.566;2022-12-18T12:53:49;-2.46;74.59
63202;DHT22;49296;48.188;11.566;2022-12-18T12:56:17;-2.56;74.55
63202;DHT22;49296;48.188;11.566;2022-12-18T12:58:52;-2.41;74.42
63202;DHT22;49296;48.188;11.566;2022-12-18T13:01:25;-2.25;74.29
63202;DHT22;49296;48.188;11.566;2022-12-18T13:03:55;-2.30;74.48
63202;DHT22;49296;48.188;11.566;2022-12-18T13:06:27;-2.15;74.39
63202;DHT22;49296;48.188;11.566;2022-12-18T13:08:56;-2.05;74.12
63202;DHT22;49296;48.188;11.566;2022-12-18T13:11:34;-2.01;73.70
63202;DHT22;49296;48.188;11.566;2022-12-18T13:14:29;-1.88;73.33
63202;DHT22;49296;48.188;11.566;2022-12-18T13:17:15;-1.85;73.13
63202;DHT22;49296;48.188;11.566;2022-12-18T13:19:43;-1.94;73.62
63202;DHT22;49296;48.188;11.566;2022-12-18T13:22:20;-1.99;73.83
63202;DHT22;49296;48.188;11.566;2022-12-18T13:24:47;-2.09;74.22
63202;DHT22;49296;48.188;11.566;2022-12-18T13:29:55;-2.10;74.13
63202;DHT22;49296;48.188;11.566;2022-12-18T13:32:22;-2.07;76.48
63202;DHT22;49296;48.188;11.566;2022-12-18T13:37:42;-1.92;76.03
63202;DHT22;49296;48.188;11.566;2022-12-18T13:42:51;-1.81;75.65
63202;DHT22;49296;48.188;11.566;2022-12-18T13:45:40;-1.75;74.63
63202;DHT22;49296;48.188;11.566;2022-12-18T13:48:14;-1.81;74.24
63202;DHT22;49296;48.188;11.566;2022-12-18T13:50:41;-1.91;73.94
63202;DHT22;49296;48.188;11.566;2022-12-18T13:53:12;-2.07;74.73
63202;DHT22;49296;48.188;11.566;2022-12-18T13:55:45;-1.88;74.64
63202;DHT22;49296;48.188;11.566;2022-12-18T13:58:12;-2.01;74.85
63202;DHT22;49296;48.188;11.566;2022-12-18T14:00:41;-2.16;74.90
63202;DHT22;49296;48.188;11.566;2022-12-18T14:03:15;-2.23;74.91
63202;DHT22;49296;48.188;11.566;2022-12-18T14:05:43;-2.22;75.38
63202;DHT22;49296;48.188;11.566;2022-12-18T14:08:11;-2.23;75.17
63202;DHT22;49296;48.188;11.566;2022-12-18T14:10:41;-2.25;75.26
63202;DHT22;49296;48.188;11.566;2022-12-18T14:13:08;-2.30;74.75
63202;DHT22;49296;48.188;11.566;2022-12-18T14:15:38;-2.25;74.97
63202;DHT22;49296;48.188;11.566;2022-12-18T14:18:12;-2.39;74.92
63202;DHT22;49296;48.188;11.566;2022-12-18T14:20:41;-2.37;74.98
63202;DHT22;49296;48.188;11.566;2022-12-18T14:23:24;-2.53;75.01
63202;DHT22;49296;48.188;11.566;2022-12-18T14:25:53;-2.36;75.14
63202;DHT22;49296;48.188;11.566;2022-12-18T14:28:19;-2.39;75.23
63202;DHT22;49296;48.188;11.566;2022-12-18T14:30:47;-2.39;75.22
63202;DHT22;49296;48.188;11.566;2022-12-18T14:33:14;-2.37;75.04
63202;DHT22;49296;48.188;11.566;2022-12-18T14:35:41;-2.41;75.19
63202;DHT22;49296;48.188;11.566;2022-12-18T14:38:09;-2.47;75.45
63202;DHT22;49296;48.188;11.566;2022-12-18T14:40:36;-2.56;75.81
63202;DHT22;49296;48.188;11.566;2022-12-18T14:43:04;-2.56;76.02
63202;DHT22;49296;48.188;11.566;2022-12-18T14:45:34;-2.60;75.91
63202;DHT22;49296;48.188;11.566;2022-12-18T14:48:07;-2.61;75.81
63202;DHT22;49296;48.188;11.566;2022-12-18T14:50:34;-2.61;75.90
63202;DHT22;49296;48.188;11.566;2022-12-18T14:53:01;-2.62;75.96
63202;DHT22;49296;48.188;11.566;2022-12-18T14:55:28;-2.67;76.28
63202;DHT22;49296;48.188;11.566;2022-12-18T14:57:55;-2.58;76.25
63202;DHT22;49296;48.188;11.566;2022-12-18T15:00:24;-2.65;76.07
63202;DHT22;49296;48.188;11.566;2022-12-18T15:02:51;-2.67;76.13
63202;DHT22;49296;48.188;11.566;2022-12-18T15:05:19;-2.62;76.16
63202;DHT22;49296;48.188;11.566;2022-12-18T15:07:47;-2.67;76.19
63202;DHT22;49296;48.188;11.566;2022-12-18T15:10:14;-2.71;76.30
63202;DHT22;49296;48.188;11.566;2022-12-18T15:12:42;-2.74;76.62
63202;DHT22;49296;48.188;11.566;2022-12-18T15:17:57;-2.61;76.24
63202;DHT22;49296;48.188;11.566;2022-12-18T15:20:27;-2.65;76.41
63202;DHT22;49296;48.188;11.566;2022-12-18T15:22:53;-2.58;76.49
63202;DHT22;49296;48.188;11.566;2022-12-18T15:25:24;-2.57;76.62
63202;DHT22;49296;48.188;11.566;2022-12-18T15:27:52;-2.60;76.58
63202;DHT22;49296;48.188;11.566;2022-12-18T15:30:22;-2.50;76.18
63202;DHT22;49296;48.188;11.566;2022-12-18T15:32:49;-2.49;75.97
63202;DHT22;49296;48.188;11.566;2022-12-18T15:35:19;-2.39;75.74
63202;DHT22;49296;48.188;11.566;2022-12-18T15:37:46;-2.43;75.62
63202;DHT22;49296;48.188;11.566;2022-12-18T15:40:13;-2.43;75.54